Goode, Virginia
Current Conditions -  °F | °C
As of 10:54 AM on Saturday 25 Oct 2014 (Local Time) from KLYH Reporting Station
Clear Clear  
Wind Chill: 58°   Ceiling: Unl
Heat Index: 58°   Visibility: 10mi
Dew Point: 40°   Wind: 7mph
Humidity: 51%   Direction: 200°SSW
Pressure: 30.03"   Gusts: NA
Location:  37.36°N, 79.39°W
Report Text: KLYH 251454Z 20006KT 10SM CLR 14/04 A3003 RMK AO2 SLP168 T01440044 50006 $
Loading
Personal Weather Stations






























Interactive Weather Map New forecast layout! Learn more

10-Day Weather Forecast

Advertisements
Track Severe Weather on mobile